Redruth, United Kingdom
Current Conditions -  °F | °C
As of 6:50 PM on Tuesday 21 Oct 2014 (Local Time) from EGDR Reporting Station
Broken Clouds Broken Clouds  
Wind Chill: 54°   Ceiling: 30000
Heat Index: 54°   Visibility: 6mi
Dew Point: 37°   Wind: 21mph
Humidity: 54%   Direction: 310°NW
Pressure: 30.24"   Gusts: 38mph
Location:  50.23°N, 5.23°W
Report Text: EGDR 211750Z 31018G33KT 9999 FEW020 BKN300 12/03 Q1024 BLU TEMPO 8000 -SHRA SCT020 WHT
Loading
Personal Weather Stations






























Interactive Weather Map
Tropical Storm Tracking
New forecast layout! Learn more

10-Day Weather Forecast

Advertisements
Track Severe Weather on mobile